Granbury, Texas
Current Conditions -  °F | °C
As of 9:35 PM on Monday 20 Oct 2014 (Local Time) from KGDJ Reporting Station
Clear Clear  
Wind Chill: 69°   Ceiling: Unl
Heat Index: 69°   Visibility: 10mi
Dew Point: 58°   Wind: 5mph
Humidity: 66%   Direction: 110°ESE
Pressure: 30.06"   Gusts: NA
Location:  32.44°N, 97.79°W
Report Text: KGDJ 210235Z AUTO 11004KT 10SM CLR 21/14 A3006 RMK AO2 T02080143
Loading
Personal Weather Stations






























Interactive Weather Map
Tropical Storm Tracking
New forecast layout! Learn more

10-Day Weather Forecast

Advertisements
Track Severe Weather on mobile